Time;durP1;ratioP1;P1;durP2;ratioP2;P2;SDS_P1;SDS_P2;PMS_P1;PMS_P2;Temp;Humidity;BMP_temperature;BMP_pressure;BME280_temperature;BME280_humidity;BME280_pressure;Samples;Min_cycle;Max_cycle;Signal;HPM_P1;HPM_P2
2024/04/11 00:02:08;;;;;;;6.67;2.97;;;10.30;99.80;;;;;;799638;180;26437;-88
2024/04/11 00:04:36;;;;;;;9.83;2.97;;;10.20;99.90;;;;;;800413;176;26462;-87
2024/04/11 00:07:03;;;;;;;5.27;2.97;;;10.20;99.90;;;;;;801251;180;26484;-88
2024/04/11 00:09:29;;;;;;;8.27;2.90;;;10.20;99.90;;;;;;799189;176;26451;-87
2024/04/11 00:11:56;;;;;;;10.47;5.00;;;10.20;99.80;;;;;;798658;180;26444;-89
2024/04/11 00:14:24;;;;;;;7.83;2.97;;;10.20;99.80;;;;;;798046;180;26457;-88
2024/04/11 00:16:49;;;;;;;18.53;11.50;;;10.20;99.90;;;;;;797550;179;26499;-88
2024/04/11 00:19:16;;;;;;;28.07;12.80;;;10.10;99.90;;;;;;799470;176;27001;-87
2024/04/11 00:21:43;;;;;;;39.93;20.60;;;10.00;99.90;;;;;;799555;180;26490;-88
2024/04/11 00:24:10;;;;;;;21.60;11.13;;;10.10;99.80;;;;;;798332;180;26426;-87
2024/04/11 00:26:37;;;;;;;34.97;21.37;;;10.20;99.90;;;;;;799208;176;26455;-88
2024/04/11 00:29:04;;;;;;;40.20;20.43;;;10.20;99.80;;;;;;797471;180;26460;-87
2024/04/11 00:31:30;;;;;;;123.87;59.17;;;10.30;99.20;;;;;;798009;180;26479;-89
2024/04/11 00:34:12;;;;;;;86.37;42.20;;;10.30;98.80;;;;;;798074;179;26448;-89
2024/04/11 00:36:24;;;;;;;33.80;16.83;;;10.30;99.00;;;;;;799360;179;26487;-87
2024/04/11 00:38:51;;;;;;;18.87;10.23;;;10.30;98.10;;;;;;799717;176;26450;-87
2024/04/11 00:41:19;;;;;;;31.13;16.53;;;10.40;98.10;;;;;;798173;180;26462;-89
2024/04/11 00:43:44;;;;;;;42.97;20.73;;;10.30;98.00;;;;;;797828;180;26499;-87
2024/04/11 00:46:10;;;;;;;102.80;46.50;;;10.40;98.10;;;;;;798353;180;26517;-88
2024/04/11 00:48:39;;;;;;;51.57;26.13;;;10.40;97.90;;;;;;798113;179;26468;-88
2024/04/11 00:51:04;;;;;;;20.97;10.23;;;10.50;97.60;;;;;;797158;180;26476;-89
2024/04/11 00:53:31;;;;;;;6.43;3.40;;;10.40;97.60;;;;;;798124;180;26456;-86
2024/04/11 00:55:58;;;;;;;9.90;3.50;;;10.40;97.60;;;;;;798373;180;26473;-86
2024/04/11 00:58:24;;;;;;;7.10;2.90;;;10.40;97.80;;;;;;798918;180;26455;-87
2024/04/11 01:00:52;;;;;;;8.03;2.53;;;10.30;97.90;;;;;;798206;178;26472;-88
2024/04/11 01:03:17;;;;;;;18.10;8.97;;;10.40;97.80;;;;;;800663;179;26449;-86
2024/04/11 01:05:44;;;;;;;11.60;5.40;;;10.40;97.70;;;;;;799374;179;27004;-87
2024/04/11 01:08:11;;;;;;;41.00;19.43;;;10.40;97.60;;;;;;798830;180;26479;-87
2024/04/11 01:10:38;;;;;;;41.23;19.83;;;10.30;98.00;;;;;;798745;180;26459;-85
2024/04/11 01:13:05;;;;;;;15.50;6.73;;;10.40;97.70;;;;;;798280;180;26467;-88
2024/04/11 01:15:33;;;;;;;10.57;4.23;;;10.30;97.80;;;;;;798717;180;26463;-88
2024/04/11 01:17:59;;;;;;;7.93;2.77;;;10.40;97.70;;;;;;798999;180;27048;-88
2024/04/11 01:20:26;;;;;;;10.00;2.70;;;10.30;97.80;;;;;;798651;180;26691;-88
2024/04/11 01:22:52;;;;;;;8.83;3.40;;;10.30;98.10;;;;;;798593;180;26464;-88
2024/04/11 01:25:19;;;;;;;7.33;2.53;;;10.30;98.20;;;;;;798506;179;26478;-88
2024/04/11 01:27:45;;;;;;;5.90;2.57;;;10.30;98.10;;;;;;797830;179;26981;-87
2024/04/11 01:30:12;;;;;;;4.70;2.73;;;10.30;98.40;;;;;;798217;177;26459;-87
2024/04/11 01:32:39;;;;;;;6.90;2.90;;;10.20;99.50;;;;;;798334;180;27533;-88
2024/04/11 01:35:05;;;;;;;7.67;3.00;;;10.10;99.90;;;;;;798285;179;26451;-88
2024/04/11 01:37:32;;;;;;;5.67;2.63;;;10.00;99.90;;;;;;797914;179;26525;-87
2024/04/11 01:39:59;;;;;;;7.47;3.20;;;9.90;99.90;;;;;;798289;179;26616;-87
2024/04/11 01:42:25;;;;;;;7.10;3.00;;;9.80;99.90;;;;;;797652;178;26500;-88
2024/04/11 01:44:52;;;;;;;6.33;3.23;;;9.70;99.90;;;;;;797739;180;26476;-87
2024/04/11 01:47:18;;;;;;;5.53;3.00;;;9.60;99.90;;;;;;797672;177;26456;-87
2024/04/11 01:49:45;;;;;;;6.20;3.10;;;9.50;99.90;;;;;;798527;180;26512;-87
2024/04/11 01:52:12;;;;;;;6.57;3.03;;;9.50;99.90;;;;;;798182;180;27020;-88
2024/04/11 01:54:39;;;;;;;4.90;3.10;;;9.50;99.90;;;;;;798160;176;26498;-88
2024/04/11 01:57:06;;;;;;;6.50;2.83;;;9.40;99.90;;;;;;797722;180;26438;-87
2024/04/11 01:59:33;;;;;;;7.90;2.97;;;9.50;99.90;;;;;;798094;179;26444;-89
2024/04/11 02:02:01;;;;;;;6.90;2.87;;;9.50;99.90;;;;;;798375;179;26500;-88
2024/04/11 02:04:30;;;;;;;6.40;3.10;;;9.40;99.90;;;;;;797668;178;26466;-88
2024/04/11 02:06:53;;;;;;;9.80;3.87;;;9.40;99.90;;;;;;797328;179;26458;-88
2024/04/11 02:09:22;;;;;;;7.23;2.93;;;9.30;99.90;;;;;;797773;176;26484;-87
2024/04/11 02:11:46;;;;;;;9.20;3.53;;;9.30;99.90;;;;;;797954;176;26462;-88
2024/04/11 02:14:13;;;;;;;8.07;3.17;;;9.30;99.90;;;;;;801078;178;26479;-88
2024/04/11 02:16:40;;;;;;;7.73;2.90;;;9.40;99.90;;;;;;799952;179;26465;-88
2024/04/11 02:19:06;;;;;;;7.53;2.93;;;9.30;99.90;;;;;;799930;179;26426;-87
2024/04/11 02:21:34;;;;;;;6.77;3.37;;;9.30;99.90;;;;;;799419;180;26518;-87
2024/04/11 02:24:01;;;;;;;5.70;3.10;;;9.40;99.90;;;;;;798931;180;26432;-87
2024/04/11 02:26:29;;;;;;;5.57;2.90;;;9.40;99.90;;;;;;799394;179;26505;-87
2024/04/11 02:28:54;;;;;;;8.77;3.33;;;9.30;99.90;;;;;;799627;179;26447;-86
2024/04/11 02:31:20;;;;;;;6.37;2.90;;;9.30;99.90;;;;;;801378;179;26484;-87
2024/04/11 02:33:47;;;;;;;7.57;3.20;;;9.30;99.90;;;;;;798178;179;26456;-87
2024/04/11 02:36:13;;;;;;;6.73;2.90;;;9.20;99.90;;;;;;798069;180;26440;-88
2024/04/11 02:38:40;;;;;;;9.57;3.90;;;9.20;99.90;;;;;;799133;179;26953;-89
2024/04/11 02:41:07;;;;;;;7.07;3.37;;;9.20;99.90;;;;;;801556;179;26528;-89
2024/04/11 02:43:37;;;;;;;7.13;2.77;;;9.10;99.90;;;;;;801621;179;26986;-88
2024/04/11 02:46:01;;;;;;;10.10;3.87;;;9.10;99.90;;;;;;799983;179;26518;-89
2024/04/11 02:48:27;;;;;;;9.83;3.30;;;9.20;99.90;;;;;;799070;176;26455;-88
2024/04/11 02:50:55;;;;;;;7.40;3.10;;;9.10;99.90;;;;;;798683;180;26467;-88
2024/04/11 02:53:22;;;;;;;9.43;3.50;;;9.10;99.90;;;;;;798439;180;27005;-88
2024/04/11 02:55:48;;;;;;;5.87;3.03;;;9.10;99.90;;;;;;798198;180;26517;-88
2024/04/11 02:58:14;;;;;;;7.30;3.50;;;9.10;99.90;;;;;;798199;180;26435;-88
2024/04/11 03:00:41;;;;;;;4.67;3.23;;;9.10;99.90;;;;;;798649;180;26468;-88
2024/04/11 03:03:07;;;;;;;6.17;3.33;;;9.20;99.90;;;;;;797663;177;26477;-88
2024/04/11 03:05:36;;;;;;;5.80;3.10;;;9.30;99.90;;;;;;797499;180;26503;-89
2024/04/11 03:08:01;;;;;;;9.83;3.30;;;9.30;99.90;;;;;;799601;179;26439;-88
2024/04/11 03:10:27;;;;;;;4.87;3.10;;;9.30;99.90;;;;;;798627;179;26467;-88
2024/04/11 03:12:54;;;;;;;5.67;3.40;;;9.30;99.90;;;;;;797914;179;26475;-88
2024/04/11 03:15:21;;;;;;;9.87;3.50;;;9.30;99.90;;;;;;796877;180;26498;-89
2024/04/11 03:17:48;;;;;;;8.93;3.80;;;9.20;99.90;;;;;;797687;179;26448;-89
2024/04/11 03:20:17;;;;;;;8.30;3.70;;;9.20;99.90;;;;;;797664;180;26462;-88
2024/04/11 03:22:41;;;;;;;8.13;3.80;;;9.20;99.90;;;;;;797663;180;26460;-87
2024/04/11 03:25:08;;;;;;;6.83;3.63;;;9.20;99.90;;;;;;798707;178;26458;-89
2024/04/11 03:27:34;;;;;;;9.63;3.90;;;9.20;99.90;;;;;;799517;180;26454;-87
2024/04/11 03:30:01;;;;;;;7.20;3.73;;;9.10;99.90;;;;;;799318;180;26480;-87
2024/04/11 03:32:28;;;;;;;9.10;3.70;;;9.20;99.90;;;;;;800114;179;26998;-87
2024/04/11 03:34:54;;;;;;;8.17;3.50;;;9.10;99.90;;;;;;799656;180;27002;-88
2024/04/11 03:37:20;;;;;;;11.40;4.13;;;9.10;99.90;;;;;;800026;179;26443;-88
2024/04/11 03:39:48;;;;;;;5.97;3.67;;;9.00;99.90;;;;;;799593;180;26681;-87
2024/04/11 03:42:14;;;;;;;6.73;3.53;;;9.10;99.90;;;;;;798970;180;26469;-87
2024/04/11 03:44:42;;;;;;;7.93;4.07;;;9.00;99.90;;;;;;798282;179;26462;-87
2024/04/11 03:47:08;;;;;;;8.37;3.73;;;9.00;99.90;;;;;;797393;180;26454;-87
2024/04/11 03:49:34;;;;;;;7.77;4.00;;;9.10;99.90;;;;;;798001;180;26438;-88
2024/04/11 03:52:05;;;;;;;9.20;3.87;;;9.10;99.90;;;;;;797751;180;26458;-87
2024/04/11 03:54:27;;;;;;;7.70;3.60;;;9.10;99.90;;;;;;798391;180;26466;-88
2024/04/11 03:56:55;;;;;;;6.77;3.97;;;9.10;99.90;;;;;;799479;179;26443;-88
2024/04/11 03:59:21;;;;;;;8.17;4.60;;;9.10;99.90;;;;;;799053;177;26447;-88
2024/04/11 04:01:47;;;;;;;8.43;4.17;;;9.10;99.90;;;;;;798401;180;26983;-88
2024/04/11 04:04:14;;;;;;;10.80;4.60;;;9.00;99.90;;;;;;797881;180;26447;-87
2024/04/11 04:06:42;;;;;;;11.40;4.13;;;9.10;99.90;;;;;;797310;180;26447;-87
2024/04/11 04:09:08;;;;;;;10.90;4.03;;;9.00;99.90;;;;;;797564;180;26448;-87
2024/04/11 04:11:37;;;;;;;9.30;4.73;;;9.10;99.90;;;;;;797757;180;26472;-87
2024/04/11 04:14:08;;;;;;;7.90;4.13;;;9.00;99.90;;;;;;798750;180;26522;-86
2024/04/11 04:16:31;;;;;;;8.20;4.43;;;9.00;99.90;;;;;;796502;180;26436;-88
2024/04/11 04:18:57;;;;;;;15.23;5.37;;;9.00;99.90;;;;;;798523;179;26459;-88
2024/04/11 04:21:26;;;;;;;8.60;4.30;;;9.00;99.90;;;;;;797306;180;26460;-88
2024/04/11 04:23:55;;;;;;;9.77;4.43;;;9.10;99.90;;;;;;797184;180;26475;-86
2024/04/11 04:26:20;;;;;;;13.37;5.67;;;9.10;99.90;;;;;;799028;179;26442;-88
2024/04/11 04:28:44;;;;;;;11.53;4.73;;;9.10;99.90;;;;;;799796;179;26457;-87
2024/04/11 04:31:16;;;;;;;11.47;4.90;;;9.10;99.90;;;;;;797393;180;26537;-89
2024/04/11 04:33:42;;;;;;;9.93;4.50;;;9.10;99.90;;;;;;798051;180;26491;-87
2024/04/11 04:36:11;;;;;;;9.73;4.43;;;9.00;99.90;;;;;;799883;178;26459;-88
2024/04/11 04:38:37;;;;;;;9.53;4.57;;;9.00;99.90;;;;;;800606;179;26660;-88
2024/04/11 04:41:03;;;;;;;8.63;4.20;;;9.00;99.90;;;;;;799872;179;26471;-88
2024/04/11 04:43:30;;;;;;;8.63;4.27;;;9.10;99.90;;;;;;800270;179;26444;-88
2024/04/11 04:45:57;;;;;;;13.47;4.20;;;9.10;99.90;;;;;;798980;180;26997;-88
2024/04/11 04:48:24;;;;;;;12.23;4.40;;;9.20;99.90;;;;;;799788;180;26440;-88
2024/04/11 04:50:50;;;;;;;8.40;4.33;;;9.20;99.90;;;;;;799816;176;26459;-88
2024/04/11 04:56:03;;;;;;;9.33;4.40;;;9.30;99.90;;;;;;782958;181;26506;-81
2024/04/11 04:58:29;;;;;;;10.07;4.43;;;9.30;99.90;;;;;;784066;181;26431;-80
2024/04/11 05:00:56;;;;;;;10.73;4.47;;;9.40;99.90;;;;;;770999;185;27074;-81
2024/04/11 05:03:24;;;;;;;9.40;4.40;;;9.40;99.90;;;;;;772135;185;26489;-80
2024/04/11 05:05:49;;;;;;;15.13;4.80;;;9.40;99.90;;;;;;768786;184;26486;-79
2024/04/11 05:08:15;;;;;;;13.43;4.67;;;9.50;99.90;;;;;;772087;185;26544;-82
2024/04/11 05:10:42;;;;;;;9.20;4.50;;;9.60;99.90;;;;;;790049;181;26440;-81
2024/04/11 05:13:10;;;;;;;12.53;4.67;;;9.70;99.90;;;;;;772378;183;26474;-80
2024/04/11 05:15:37;;;;;;;11.97;4.80;;;9.70;99.90;;;;;;788500;182;26518;-82
2024/04/11 05:18:04;;;;;;;12.37;4.67;;;9.60;99.90;;;;;;781499;183;26498;-80
2024/04/11 05:20:33;;;;;;;17.63;5.13;;;9.70;99.90;;;;;;780346;183;26481;-79
2024/04/11 05:22:59;;;;;;;13.83;5.10;;;9.70;99.90;;;;;;780448;182;26504;-80
2024/04/11 05:25:29;;;;;;;11.27;4.10;;;9.70;99.90;;;;;;785845;182;26461;-80
2024/04/11 05:27:53;;;;;;;23.67;4.97;;;9.80;99.90;;;;;;775511;185;27037;-81
2024/04/11 05:30:20;;;;;;;19.10;5.03;;;9.80;99.90;;;;;;774194;184;26483;-81
2024/04/11 05:32:47;;;;;;;18.67;4.60;;;9.90;99.90;;;;;;767346;187;26546;-82
2024/04/11 05:35:15;;;;;;;12.53;4.67;;;9.90;99.90;;;;;;765304;185;26490;-79
2024/04/11 05:37:40;;;;;;;18.27;5.13;;;9.90;99.90;;;;;;788828;181;28086;-80
2024/04/11 05:40:07;;;;;;;20.33;5.90;;;9.80;99.90;;;;;;781500;183;26489;-80
2024/04/11 05:42:39;;;;;;;17.27;5.47;;;9.90;99.90;;;;;;782327;183;26650;-77
2024/04/11 05:45:03;;;;;;;9.57;3.60;;;9.90;99.90;;;;;;785634;178;27034;-80
2024/04/11 05:47:31;;;;;;;9.53;3.87;;;9.90;99.90;;;;;;776795;184;27110;-80
2024/04/11 05:49:57;;;;;;;9.77;4.03;;;10.00;99.90;;;;;;775656;184;26454;-80
2024/04/11 05:52:24;;;;;;;8.17;3.53;;;10.00;99.90;;;;;;774228;184;28096;-81
2024/04/11 05:54:51;;;;;;;8.37;3.57;;;10.00;99.90;;;;;;777203;184;26549;-79
2024/04/11 05:57:17;;;;;;;8.43;3.40;;;10.10;99.90;;;;;;777599;181;26457;-79
2024/04/11 05:59:45;;;;;;;6.07;3.50;;;10.10;99.90;;;;;;772456;183;26504;-81
2024/04/11 06:02:13;;;;;;;13.17;3.70;;;10.20;99.90;;;;;;767082;185;26471;-79
2024/04/11 06:04:40;;;;;;;10.27;4.93;;;10.20;99.90;;;;;;767711;185;27067;-82
2024/04/11 06:07:06;;;;;;;7.63;3.57;;;10.30;99.90;;;;;;774361;185;26458;-79
2024/04/11 06:09:34;;;;;;;7.03;3.33;;;10.50;99.90;;;;;;793762;181;26432;-79
2024/04/11 06:11:59;;;;;;;9.80;4.93;;;10.60;99.90;;;;;;775912;183;26495;-82
2024/04/11 06:14:25;;;;;;;8.60;3.57;;;10.60;99.90;;;;;;772284;184;26547;-83
2024/04/11 06:16:52;;;;;;;7.70;3.70;;;10.70;99.90;;;;;;785919;182;26451;-81
2024/04/11 06:19:19;;;;;;;17.17;4.53;;;10.70;99.90;;;;;;781542;183;27012;-80
2024/04/11 06:21:47;;;;;;;9.53;4.20;;;10.80;99.90;;;;;;779059;183;26484;-79
2024/04/11 06:24:12;;;;;;;18.40;6.00;;;10.80;99.90;;;;;;778581;183;27071;-81
2024/04/11 06:26:39;;;;;;;11.57;5.07;;;10.80;99.90;;;;;;771648;185;26553;-81
2024/04/11 06:29:07;;;;;;;11.17;4.63;;;10.90;99.90;;;;;;790678;181;26992;-80
2024/04/11 06:31:33;;;;;;;12.60;3.93;;;10.90;99.90;;;;;;768113;183;26475;-81
2024/04/11 06:33:59;;;;;;;12.40;4.23;;;11.00;99.90;;;;;;764885;184;26511;-79
2024/04/11 06:36:26;;;;;;;8.83;3.90;;;11.00;99.90;;;;;;771714;185;26483;-80
2024/04/11 06:38:52;;;;;;;11.63;3.70;;;11.10;99.90;;;;;;785530;181;26459;-82
2024/04/11 06:41:22;;;;;;;9.70;3.70;;;11.20;99.90;;;;;;783025;182;26446;-81
2024/04/11 06:43:46;;;;;;;8.73;3.77;;;11.30;99.90;;;;;;772290;182;26507;-81
2024/04/11 06:46:13;;;;;;;11.40;3.63;;;11.30;99.90;;;;;;784699;182;26471;-80
2024/04/11 06:48:39;;;;;;;11.63;4.40;;;11.40;99.90;;;;;;781785;182;26989;-80
2024/04/11 06:51:06;;;;;;;9.63;3.77;;;11.40;99.90;;;;;;772249;185;26494;-81
2024/04/11 06:53:32;;;;;;;8.17;4.10;;;11.40;99.90;;;;;;787540;181;26986;-80
2024/04/11 06:55:59;;;;;;;6.83;3.30;;;11.40;99.90;;;;;;765628;185;26476;-81
2024/04/11 06:58:26;;;;;;;10.47;4.10;;;11.40;99.90;;;;;;767473;184;26490;-79
2024/04/11 07:00:58;;;;;;;14.10;4.53;;;11.50;99.90;;;;;;772775;184;27047;-80
2024/04/11 07:03:26;;;;;;;10.60;3.97;;;11.60;99.90;;;;;;771645;183;26608;-82
2024/04/11 07:05:55;;;;;;;9.33;5.27;;;11.50;99.90;;;;;;771732;185;27041;-81
2024/04/11 07:08:30;;;;;;;8.93;3.30;;;11.40;99.90;;;;;;767641;185;26489;-82
2024/04/11 07:10:58;;;;;;;12.87;3.67;;;11.60;99.90;;;;;;768234;185;26656;-81
2024/04/11 07:13:23;;;;;;;9.40;4.07;;;11.60;99.90;;;;;;767921;187;26492;-80
2024/04/11 07:15:50;;;;;;;14.80;3.73;;;11.60;99.90;;;;;;772168;184;26483;-81
2024/04/11 07:18:16;;;;;;;9.80;3.83;;;11.60;99.90;;;;;;787385;182;27020;-82
2024/04/11 07:20:50;;;;;;;14.43;4.10;;;11.70;99.90;;;;;;780732;183;26498;-85
2024/04/11 07:23:11;;;;;;;12.07;3.60;;;11.60;99.90;;;;;;784837;183;26460;-87
2024/04/11 07:25:38;;;;;;;11.67;6.30;;;11.70;99.90;;;;;;782873;183;26467;-85
2024/04/11 07:28:07;;;;;;;11.77;3.60;;;11.90;99.90;;;;;;777524;182;26492;-82
2024/04/11 07:30:31;;;;;;;10.80;3.53;;;12.10;99.90;;;;;;778320;183;26474;-77
2024/04/11 07:32:58;;;;;;;9.00;3.60;;;12.20;99.90;;;;;;789720;182;26489;-78
2024/04/11 07:35:26;;;;;;;19.03;3.47;;;12.20;99.90;;;;;;788787;181;26451;-79
2024/04/11 07:37:51;;;;;;;10.90;3.60;;;12.10;99.90;;;;;;770403;183;26533;-79
2024/04/11 07:42:55;;;;;;;8.30;3.57;;;12.10;99.90;;;;;;780015;183;26478;-75
2024/04/11 07:45:17;;;;;;;12.53;3.53;;;12.30;99.90;;;;;;784246;182;27062;-77
2024/04/11 07:47:43;;;;;;;11.00;3.40;;;12.40;99.90;;;;;;774419;181;26534;-75
2024/04/11 07:50:11;;;;;;;10.13;3.30;;;12.50;99.90;;;;;;771157;183;27072;-80
2024/04/11 07:52:37;;;;;;;9.33;3.27;;;12.60;99.90;;;;;;771612;185;26475;-80
2024/04/11 07:55:03;;;;;;;9.80;3.50;;;12.70;99.90;;;;;;786250;181;26499;-79
2024/04/11 07:57:30;;;;;;;14.47;3.80;;;12.70;99.90;;;;;;782767;182;26438;-79
2024/04/11 07:59:56;;;;;;;11.43;4.20;;;12.80;99.90;;;;;;770997;179;26639;-80
2024/04/11 08:02:23;;;;;;;8.53;3.63;;;12.90;99.90;;;;;;784284;182;26472;-80
2024/04/11 08:04:49;;;;;;;9.17;3.67;;;13.00;99.90;;;;;;783625;182;26859;-78
2024/04/11 08:07:16;;;;;;;8.73;3.20;;;13.10;99.90;;;;;;769811;185;26502;-79
2024/04/11 08:09:44;;;;;;;8.50;3.43;;;12.90;99.90;;;;;;789305;181;27640;-79
2024/04/11 08:12:11;;;;;;;8.80;3.43;;;12.90;99.90;;;;;;778547;183;26460;-81
2024/04/11 08:14:37;;;;;;;12.20;3.87;;;12.90;99.90;;;;;;772192;183;26491;-79
2024/04/11 08:17:04;;;;;;;15.00;3.87;;;12.90;99.90;;;;;;766460;184;26484;-78
2024/04/11 08:19:31;;;;;;;12.97;4.47;;;13.00;99.90;;;;;;772790;184;26473;-80
2024/04/11 08:21:57;;;;;;;14.73;4.40;;;13.00;99.90;;;;;;791754;181;26453;-82
2024/04/11 08:24:24;;;;;;;9.43;3.60;;;12.90;99.90;;;;;;776555;183;26489;-79
2024/04/11 08:26:52;;;;;;;11.33;3.33;;;12.90;99.90;;;;;;787918;181;26500;-77
2024/04/11 08:29:18;;;;;;;14.30;3.57;;;13.00;99.90;;;;;;774407;183;26479;-79
2024/04/11 08:31:46;;;;;;;10.77;3.83;;;13.00;99.90;;;;;;772763;183;26465;-81
2024/04/11 08:34:12;;;;;;;14.20;3.33;;;13.10;99.90;;;;;;773252;184;26633;-80
2024/04/11 08:36:38;;;;;;;11.53;3.67;;;13.20;99.90;;;;;;788434;181;26449;-80
2024/04/11 08:39:04;;;;;;;10.13;3.47;;;13.30;99.90;;;;;;791201;181;26420;-81
2024/04/11 08:41:31;;;;;;;9.80;3.47;;;13.30;99.90;;;;;;769952;184;26451;-80
2024/04/11 08:43:59;;;;;;;10.10;3.30;;;13.40;99.90;;;;;;768785;184;26497;-80
2024/04/11 08:46:25;;;;;;;10.43;3.90;;;13.40;99.90;;;;;;770615;185;26483;-81
2024/04/11 08:48:52;;;;;;;10.97;4.90;;;13.50;99.90;;;;;;770692;185;26463;-80
2024/04/11 08:51:20;;;;;;;13.33;3.50;;;13.70;99.90;;;;;;768108;185;26482;-81
2024/04/11 08:53:47;;;;;;;9.60;3.20;;;13.90;99.90;;;;;;768286;184;26499;-81
2024/04/11 08:56:14;;;;;;;15.43;3.97;;;13.90;98.30;;;;;;768357;185;26478;-82
2024/04/11 08:58:40;;;;;;;11.33;3.90;;;14.00;99.50;;;;;;770709;184;26526;-81
2024/04/11 09:01:08;;;;;;;14.40;3.27;;;14.10;99.40;;;;;;770634;185;26497;-82
2024/04/11 09:03:35;;;;;;;11.10;3.50;;;14.30;98.60;;;;;;791062;180;26480;-82
2024/04/11 09:06:01;;;;;;;11.20;3.37;;;14.20;97.40;;;;;;782619;182;26501;-83
2024/04/11 09:08:28;;;;;;;10.10;3.10;;;14.30;98.20;;;;;;780970;183;26649;-81
2024/04/11 09:10:55;;;;;;;11.63;3.77;;;14.40;97.20;;;;;;762264;187;26423;-81
2024/04/11 09:13:23;;;;;;;17.00;3.73;;;14.40;96.30;;;;;;782568;182;26619;-82
2024/04/11 09:16:06;;;;;;;12.93;4.60;;;14.40;98.40;;;;;;777644;184;26471;-83
2024/04/11 09:18:31;;;;;;;11.67;3.13;;;14.50;96.40;;;;;;776241;179;26476;-80
2024/04/11 09:20:59;;;;;;;11.27;3.70;;;14.60;96.70;;;;;;771657;183;26490;-82
2024/04/11 09:23:25;;;;;;;15.70;3.27;;;14.80;96.80;;;;;;774286;183;26467;-80
2024/04/11 09:25:55;;;;;;;8.03;3.23;;;14.80;96.60;;;;;;770639;184;26506;-80
2024/04/11 09:28:20;;;;;;;16.40;3.63;;;15.00;95.80;;;;;;770311;184;26483;-81
2024/04/11 09:30:45;;;;;;;9.17;3.07;;;15.10;95.50;;;;;;770920;185;26477;-82
2024/04/11 09:33:14;;;;;;;14.83;3.33;;;15.30;94.30;;;;;;776062;185;26486;-81
2024/04/11 09:35:41;;;;;;;12.43;3.40;;;15.10;94.70;;;;;;791929;179;26459;-81
2024/04/11 09:38:10;;;;;;;11.23;3.00;;;15.30;94.30;;;;;;791492;181;26453;-83
2024/04/11 09:40:38;;;;;;;10.87;3.40;;;15.20;93.40;;;;;;790331;181;26454;-83
2024/04/11 09:43:04;;;;;;;8.13;2.70;;;14.90;93.40;;;;;;790618;181;26442;-82
2024/04/11 09:45:32;;;;;;;9.20;2.97;;;14.90;93.70;;;;;;791289;181;27125;-81
2024/04/11 09:47:58;;;;;;;12.73;3.53;;;14.70;93.90;;;;;;791946;181;26453;-80
2024/04/11 09:50:27;;;;;;;14.00;3.60;;;14.80;94.80;;;;;;770766;184;26516;-77
2024/04/11 09:52:53;;;;;;;15.20;3.80;;;14.90;94.10;;;;;;772121;184;26538;-78
2024/04/11 09:55:30;;;;;;;14.23;5.87;;;15.00;94.40;;;;;;788405;181;26529;-79
2024/04/11 09:57:46;;;;;;;12.23;3.03;;;14.90;93.70;;;;;;769494;184;26493;-78
2024/04/11 10:02:45;;;;;;;8.27;2.40;;;15.00;93.90;;;;;;767871;184;27083;-80
2024/04/11 10:05:16;;;;;;;12.30;3.20;;;14.90;94.20;;;;;;765829;185;26494;-79
2024/04/11 10:07:44;;;;;;;15.97;3.70;;;14.80;94.30;;;;;;771688;184;26532;-79
2024/04/11 10:10:19;;;;;;;9.13;2.63;;;14.90;94.30;;;;;;767688;187;26493;-79
2024/04/11 10:12:48;;;;;;;10.97;3.10;;;14.90;94.30;;;;;;767900;184;26474;-79
2024/04/11 10:15:18;;;;;;;14.73;3.30;;;14.80;94.40;;;;;;765099;185;26503;-79
2024/04/11 10:17:41;;;;;;;7.77;2.27;;;14.90;94.70;;;;;;767841;186;26516;-81
2024/04/11 10:20:12;;;;;;;8.23;2.43;;;15.00;94.30;;;;;;763882;187;26497;-79
2024/04/11 10:22:38;;;;;;;6.00;2.53;;;15.00;95.00;;;;;;765698;184;27044;-79
2024/04/11 10:25:06;;;;;;;13.37;2.83;;;15.00;94.70;;;;;;774002;185;26525;-79
2024/04/11 10:27:34;;;;;;;13.17;3.90;;;15.10;94.70;;;;;;763484;185;26520;-79
2024/04/11 10:30:05;;;;;;;16.20;4.33;;;15.20;95.70;;;;;;771154;185;26493;-80
2024/04/11 10:32:35;;;;;;;18.00;3.70;;;15.40;95.70;;;;;;767885;184;26474;-78
2024/04/11 10:34:56;;;;;;;12.80;3.87;;;15.50;95.40;;;;;;790896;180;26644;-80
2024/04/11 10:37:26;;;;;;;12.77;3.70;;;15.70;95.20;;;;;;782196;180;26484;-79
2024/04/11 10:39:57;;;;;;;16.73;4.50;;;15.90;94.80;;;;;;779970;183;26483;-79
2024/04/11 10:42:36;;;;;;;15.53;3.43;;;16.00;95.50;;;;;;780327;182;26437;-78
2024/04/11 10:44:51;;;;;;;17.37;4.30;;;16.00;94.50;;;;;;776784;182;26490;-79
2024/04/11 10:47:17;;;;;;;18.93;3.97;;;16.30;94.40;;;;;;773532;182;26466;-79
2024/04/11 10:49:45;;;;;;;9.50;3.43;;;16.40;93.70;;;;;;777600;182;26495;-80
2024/04/11 10:52:10;;;;;;;11.50;3.07;;;16.30;93.80;;;;;;769403;183;26482;-77
2024/04/11 10:54:39;;;;;;;10.13;2.83;;;16.20;93.80;;;;;;788345;182;26511;-79
2024/04/11 10:57:04;;;;;;;8.97;3.47;;;15.80;93.80;;;;;;782555;183;26509;-79
2024/04/11 10:59:32;;;;;;;11.73;3.43;;;15.90;94.40;;;;;;779548;183;26446;-78
2024/04/11 11:02:02;;;;;;;10.23;3.23;;;16.00;94.00;;;;;;776720;181;26492;-78
2024/04/11 11:04:30;;;;;;;17.60;3.40;;;16.30;93.60;;;;;;776058;180;26482;-79
2024/04/11 11:06:54;;;;;;;11.83;4.67;;;16.40;93.40;;;;;;768206;183;26495;-79
2024/04/11 11:09:22;;;;;;;8.80;2.60;;;16.50;93.30;;;;;;772544;183;26480;-78
2024/04/11 11:11:49;;;;;;;8.20;3.67;;;16.50;92.80;;;;;;780614;183;26520;-78
2024/04/11 11:14:17;;;;;;;8.97;4.03;;;16.50;93.30;;;;;;761566;187;27075;-78
2024/04/11 11:16:44;;;;;;;10.80;4.67;;;16.60;93.40;;;;;;784396;183;27038;-78
2024/04/11 11:19:12;;;;;;;13.30;2.70;;;16.60;93.20;;;;;;759588;187;26509;-77
2024/04/11 11:21:40;;;;;;;10.67;3.33;;;16.30;94.50;;;;;;785070;182;26477;-77
2024/04/11 11:24:06;;;;;;;8.57;3.70;;;16.40;94.50;;;;;;777512;181;26488;-79
2024/04/11 11:26:36;;;;;;;5.93;2.10;;;16.30;94.60;;;;;;777377;185;26455;-78
2024/04/11 11:29:03;;;;;;;9.00;2.30;;;16.10;95.50;;;;;;775494;185;26483;-78
2024/04/11 11:31:31;;;;;;;10.93;3.00;;;16.20;95.80;;;;;;770890;183;26542;-78
2024/04/11 11:33:56;;;;;;;11.30;3.20;;;16.50;96.00;;;;;;771741;184;26487;-77
2024/04/11 11:36:23;;;;;;;8.13;2.60;;;16.70;96.20;;;;;;767662;184;26563;-78
2024/04/11 11:38:49;;;;;;;9.77;3.40;;;16.70;96.30;;;;;;767740;184;26481;-79
2024/04/11 11:41:16;;;;;;;39.43;18.73;;;16.70;97.20;;;;;;767656;184;26484;-78
2024/04/11 11:43:45;;;;;;;29.00;14.60;;;16.70;96.40;;;;;;780931;181;26513;-78
2024/04/11 11:46:26;;;;;;;56.63;26.70;;;16.50;96.40;;;;;;775260;183;26553;-78
2024/04/11 11:48:47;;;;;;;55.77;25.83;;;16.40;97.40;;;;;;783760;181;26560;-79
2024/04/11 11:51:11;;;;;;;31.67;15.03;;;16.50;97.70;;;;;;788469;181;26489;-77
2024/04/11 11:53:45;;;;;;;18.67;8.43;;;16.50;98.30;;;;;;772804;184;26451;-79
2024/04/11 11:56:05;;;;;;;55.10;25.33;;;16.70;98.90;;;;;;767988;184;27053;-78
2024/04/11 11:58:31;;;;;;;27.43;13.70;;;16.80;98.50;;;;;;767925;185;26478;-78
2024/04/11 12:01:01;;;;;;;33.67;20.20;;;16.50;99.50;;;;;;770654;184;26484;-78
2024/04/11 12:03:30;;;;;;;7.37;3.53;;;16.50;99.00;;;;;;770380;185;26468;-78
2024/04/11 12:05:58;;;;;;;10.00;2.70;;;16.50;99.40;;;;;;766942;184;26510;-78
2024/04/11 12:08:24;;;;;;;8.50;3.23;;;16.70;99.00;;;;;;769553;183;26471;-78
2024/04/11 12:13:30;;;;;;;10.20;4.53;;;17.30;99.00;;;;;;769177;187;26468;-78
2024/04/11 12:15:48;;;;;;;27.30;13.70;;;17.30;98.20;;;;;;768061;187;27086;-79
2024/04/11 12:18:14;;;;;;;10.70;4.97;;;17.40;99.00;;;;;;769924;184;26498;-78
2024/04/11 12:20:39;;;;;;;46.30;25.27;;;17.50;97.90;;;;;;769858;184;26484;-78
2024/04/11 12:23:06;;;;;;;13.90;7.03;;;17.30;98.40;;;;;;765488;184;26504;-79
2024/04/11 12:25:33;;;;;;;27.47;14.83;;;17.50;98.40;;;;;;769061;184;26523;-78
2024/04/11 12:28:04;;;;;;;19.17;9.77;;;17.50;98.20;;;;;;769226;184;26480;-78
2024/04/11 12:30:26;;;;;;;73.23;37.30;;;17.50;98.40;;;;;;788467;181;27039;-77
2024/04/11 12:32:52;;;;;;;14.13;6.53;;;17.60;98.90;;;;;;780158;183;27211;-77
2024/04/11 12:35:19;;;;;;;16.40;7.03;;;17.80;99.20;;;;;;786693;182;26472;-79
2024/04/11 12:37:46;;;;;;;11.63;4.80;;;18.00;99.00;;;;;;785704;181;26617;-79
2024/04/11 12:40:13;;;;;;;12.83;6.50;;;17.90;98.10;;;;;;785801;177;26438;-77
2024/04/11 12:42:39;;;;;;;41.47;20.60;;;17.80;99.00;;;;;;790944;180;27006;-78
2024/04/11 12:45:07;;;;;;;18.80;8.20;;;17.90;99.50;;;;;;790068;182;26628;-78
2024/04/11 12:50:12;;;;;;;18.77;10.50;;;17.70;99.90;;;;;;781817;183;26461;-78
2024/04/11 12:52:40;;;;;;;15.63;6.90;;;17.40;99.90;;;;;;770104;185;27112;-79
2024/04/11 12:55:00;;;;;;;7.73;2.90;;;17.80;99.90;;;;;;782321;182;26486;-78